Time;durP1;ratioP1;P1;durP2;ratioP2;P2;SDS_P1;SDS_P2;PMS_P1;PMS_P2;Temp;Humidity;BMP_temperature;BMP_pressure;BME280_temperature;BME280_humidity;BME280_pressure;Samples;Min_cycle;Max_cycle;Signal;HPM_P1;HPM_P2
2022/01/13 00:00:31;;;;;;;153.20;30.88;;;;;;;3.93;99.07;103857.25;2104462;28;43785;-73
2022/01/13 00:01:39;;;;;;;167.57;31.27;;;;;;;3.93;99.22;103858.19;2105170;28;23588;-73
2022/01/13 00:02:41;;;;;;;163.35;31.65;;;;;;;3.92;99.20;103848.41;2104201;28;44851;-74
2022/01/13 00:03:45;;;;;;;154.68;30.73;;;;;;;3.92;99.42;103855.47;2097147;28;43322;-74
2022/01/13 00:04:48;;;;;;;182.32;33.33;;;;;;;3.91;99.24;103853.63;2095674;28;45474;-73
2022/01/13 00:05:52;;;;;;;144.13;29.15;;;;;;;3.92;99.64;103855.47;2096892;28;42428;-73
2022/01/13 00:06:54;;;;;;;161.65;31.25;;;;;;;3.92;99.41;103858.13;2096442;28;44210;-73
2022/01/13 00:07:59;;;;;;;197.55;32.90;;;;;;;3.91;99.41;103856.28;2096107;28;46331;-73
2022/01/13 00:09:01;;;;;;;168.00;31.48;;;;;;;3.88;99.08;103850.84;2096181;28;44597;-73
2022/01/13 00:10:05;;;;;;;182.80;32.78;;;;;;;3.89;99.29;103857.94;2097010;28;20037;-73
2022/01/13 00:11:08;;;;;;;187.82;32.45;;;;;;;3.89;99.33;103850.88;2096685;28;20958;-73
2022/01/13 00:12:14;;;;;;;174.85;31.80;;;;;;;3.88;99.12;103853.50;2095701;28;43955;-73
2022/01/13 00:13:23;;;;;;;179.10;32.75;;;;;;;3.89;99.24;103863.25;2104370;28;20045;-73
2022/01/13 00:14:39;;;;;;;178.77;31.77;;;;;;;3.88;99.50;103861.44;2096628;28;42642;-73
2022/01/13 00:15:49;;;;;;;171.55;31.35;;;;;;;3.88;99.16;103861.44;2097719;28;45812;-73
2022/01/13 00:17:11;;;;;;;181.85;31.92;;;;;;;3.89;99.01;103863.25;2098881;28;44065;-73
2022/01/13 00:18:19;;;;;;;180.57;30.70;;;;;;;3.89;99.58;103872.09;2099786;28;34537;-73
2022/01/13 00:22:01;;;;;;;187.73;32.38;;;;;;;3.89;99.57;103869.44;2104672;28;44052;-73
2022/01/13 00:23:40;;;;;;;179.93;33.30;;;;;;;3.88;99.31;103859.69;2104489;28;43405;-73
2022/01/13 00:24:33;;;;;;;180.35;30.92;;;;;;;3.90;99.23;103859.78;2104532;28;43920;-73
2022/01/13 00:25:38;;;;;;;178.40;31.92;;;;;;;3.89;99.64;103857.94;2104676;28;46392;-73
2022/01/13 00:26:41;;;;;;;194.45;35.20;;;;;;;3.88;99.53;103857.03;2104678;28;43868;-73
2022/01/13 00:27:49;;;;;;;207.52;34.15;;;;;;;3.86;99.14;103855.13;2103880;28;38123;-73
2022/01/13 00:28:53;;;;;;;191.38;33.65;;;;;;;3.88;99.83;103862.34;2105125;28;26710;-73
2022/01/13 00:29:58;;;;;;;199.00;32.72;;;;;;;3.89;99.34;103871.19;2112269;28;42717;-73
2022/01/13 00:31:06;;;;;;;192.18;33.72;;;;;;;3.89;99.58;103873.84;2105713;28;20854;-73
2022/01/13 00:32:09;;;;;;;199.50;34.75;;;;;;;3.88;99.88;103872.03;2104279;28;44843;-73
2022/01/13 00:33:13;;;;;;;175.98;31.23;;;;;;;3.88;99.93;103874.69;2104367;28;43038;-73
2022/01/13 00:34:15;;;;;;;188.40;32.88;;;;;;;3.87;99.46;103876.41;2104996;28;33571;-73
2022/01/13 00:35:17;;;;;;;207.85;33.33;;;;;;;3.86;99.64;103874.59;2104407;28;43647;-73
2022/01/13 00:36:18;;;;;;;199.88;32.45;;;;;;;3.88;99.51;103882.66;2112330;28;43353;-74
2022/01/13 00:37:20;;;;;;;209.32;35.60;;;;;;;3.88;99.94;103880.91;2112259;28;45736;-73
2022/01/13 00:38:22;;;;;;;212.23;33.65;;;;;;;3.88;99.85;103877.34;2104244;28;45301;-74
2022/01/13 00:39:24;;;;;;;191.68;33.55;;;;;;;3.89;99.59;103882.69;2105712;28;20036;-73
2022/01/13 00:40:27;;;;;;;228.52;34.85;;;;;;;3.88;99.55;103877.34;2112084;28;42230;-74
2022/01/13 00:41:32;;;;;;;187.02;33.38;;;;;;;3.87;99.62;103884.38;2112009;28;44107;-73
2022/01/13 00:42:35;;;;;;;203.07;34.03;;;;;;;3.87;99.47;103887.00;2104537;28;44752;-73
2022/01/13 00:43:40;;;;;;;227.95;34.25;;;;;;;3.88;99.52;103886.19;2104178;28;45532;-72
2022/01/13 00:44:43;;;;;;;201.63;33.78;;;;;;;3.89;99.73;103885.34;2103889;28;43874;-73
2022/01/13 00:45:47;;;;;;;220.57;35.28;;;;;;;3.88;99.44;103874.69;2104904;28;32048;-73
2022/01/13 00:46:56;;;;;;;188.45;32.47;;;;;;;3.89;99.46;103874.75;2104466;28;45852;-73
2022/01/13 00:48:00;;;;;;;191.25;31.10;;;;;;;3.89;99.75;103873.84;2103551;28;44772;-73
2022/01/13 00:49:02;;;;;;;184.23;33.10;;;;;;;3.89;99.38;103881.78;2095761;28;45326;-73
2022/01/13 00:50:05;;;;;;;209.57;33.65;;;;;;;3.88;99.82;103880.91;2104067;28;44239;-73
2022/01/13 00:51:08;;;;;;;193.18;33.03;;;;;;;3.89;99.54;103876.50;2104287;28;42183;-73
2022/01/13 00:52:09;;;;;;;206.55;34.78;;;;;;;3.88;99.75;103878.25;2112601;28;45494;-73
2022/01/13 00:53:11;;;;;;;179.68;32.03;;;;;;;3.90;99.60;103880.97;2111699;28;43997;-73
2022/01/13 00:54:16;;;;;;;186.15;30.80;;;;;;;3.91;99.82;103880.13;2105512;28;20159;-74
2022/01/13 00:55:22;;;;;;;174.15;30.35;;;;;;;3.90;99.92;103876.59;2103995;28;44045;-74
2022/01/13 00:56:24;;;;;;;212.70;34.28;;;;;;;3.90;99.50;103883.63;2104586;28;44381;-73
2022/01/13 00:57:28;;;;;;;201.18;32.03;;;;;;;3.90;99.51;103886.28;2103837;28;44132;-74
2022/01/13 00:58:32;;;;;;;182.70;31.70;;;;;;;3.90;99.18;103895.13;2095795;28;46333;-73
2022/01/13 00:59:34;;;;;;;176.55;29.60;;;;;;;3.91;99.56;103891.66;2103913;28;42196;-74
2022/01/13 01:00:36;;;;;;;194.10;32.42;;;;;;;3.91;100.00;103890.72;2104053;28;44352;-74
2022/01/13 01:01:49;;;;;;;189.32;31.85;;;;;;;3.90;99.58;103886.28;2103595;28;46065;-73
2022/01/13 01:02:50;;;;;;;192.32;32.72;;;;;;;3.91;99.89;103885.44;2103618;28;44405;-73
2022/01/13 01:03:52;;;;;;;194.60;31.92;;;;;;;3.90;99.65;103878.34;2096948;28;46486;-74
2022/01/13 01:04:54;;;;;;;194.70;32.67;;;;;;;3.91;99.79;103882.78;2096278;28;43620;-74
2022/01/13 01:05:57;;;;;;;199.48;33.13;;;;;;;3.91;100.00;103870.47;2096003;28;45849;-73
2022/01/13 01:06:59;;;;;;;172.07;30.92;;;;;;;3.92;99.79;103869.63;2096187;28;45963;-73
2022/01/13 01:08:04;;;;;;;161.77;27.40;;;;;;;3.94;99.41;103877.66;2095992;28;43886;-74
2022/01/13 01:09:13;;;;;;;180.27;31.38;;;;;;;3.92;100.00;103868.72;2095182;28;46475;-74
2022/01/13 01:10:15;;;;;;;182.07;31.33;;;;;;;3.95;99.86;103882.13;2095375;28;43572;-74
2022/01/13 01:11:17;;;;;;;170.55;29.05;;;;;;;3.91;99.76;103880.13;2095612;28;44047;-74
2022/01/13 01:12:19;;;;;;;177.90;31.98;;;;;;;3.93;99.51;103878.47;2096865;28;44503;-73
2022/01/13 01:13:29;;;;;;;205.70;32.70;;;;;;;3.93;99.71;103882.06;2103810;28;45002;-73
2022/01/13 01:14:33;;;;;;;182.77;32.00;;;;;;;3.93;100.00;103881.13;2103959;28;44905;-73
2022/01/13 01:15:34;;;;;;;177.13;30.63;;;;;;;3.92;99.90;103880.22;2105052;28;42338;-74
2022/01/13 01:16:36;;;;;;;193.95;29.00;;;;;;;3.94;99.62;103883.84;2104437;28;37544;-74
2022/01/13 01:17:45;;;;;;;170.70;29.63;;;;;;;3.94;99.77;103891.81;2104224;28;45444;-74
2022/01/13 01:19:52;;;;;;;208.82;31.52;;;;;;;3.95;99.39;103884.78;2112382;28;45701;-74
2022/01/13 01:22:34;;;;;;;216.52;31.70;;;;;;;3.94;99.60;103889.16;2104781;28;31495;-74
2022/01/13 01:25:16;;;;;;;193.98;30.67;;;;;;;3.94;99.63;103891.81;2108472;28;20930;-74
2022/01/13 01:26:36;;;;;;;181.10;29.85;;;;;;;3.95;99.54;103884.78;2104868;28;44158;-74
2022/01/13 01:27:45;;;;;;;194.77;28.23;;;;;;;3.96;99.88;103881.28;2105873;28;38673;-74
2022/01/13 01:28:55;;;;;;;175.40;28.67;;;;;;;3.96;99.70;103875.97;2105435;28;45063;-74
2022/01/13 01:30:08;;;;;;;170.32;28.42;;;;;;;3.95;99.77;103883.03;2104486;28;45128;-74
2022/01/13 01:31:12;;;;;;;180.77;29.60;;;;;;;3.96;99.54;103873.34;2098478;28;42067;-74
2022/01/13 01:32:15;;;;;;;192.65;29.90;;;;;;;3.96;99.80;103878.63;2098152;28;44462;-74
2022/01/13 01:33:19;;;;;;;187.38;30.35;;;;;;;3.96;99.85;103873.34;2098277;28;20114;-73
2022/01/13 01:35:29;;;;;;;188.35;30.60;;;;;;;3.98;99.79;103879.63;2105646;28;44937;-74
2022/01/13 01:36:32;;;;;;;181.40;29.05;;;;;;;3.98;99.70;103883.19;2113273;28;42484;-74
2022/01/13 01:37:34;;;;;;;209.10;31.58;;;;;;;3.98;99.59;103877.91;2104824;28;36489;-73
2022/01/13 01:38:35;;;;;;;210.25;29.63;;;;;;;4.00;99.55;103888.56;2096807;28;43608;-74
2022/01/13 01:39:40;;;;;;;178.70;30.80;;;;;;;3.99;99.96;103884.09;2105350;28;44303;-74
2022/01/13 01:40:43;;;;;;;207.18;30.42;;;;;;;3.99;99.77;103881.44;2105330;28;44417;-74
2022/01/13 01:41:51;;;;;;;201.93;29.52;;;;;;;3.98;99.60;103879.63;2105809;28;45977;-74
2022/01/13 01:42:54;;;;;;;209.63;31.13;;;;;;;3.98;100.00;103884.91;2106620;28;20041;-74
2022/01/13 01:44:01;;;;;;;218.07;31.85;;;;;;;3.98;99.90;103876.97;2113293;28;46248;-74
2022/01/13 01:45:05;;;;;;;189.93;29.67;;;;;;;3.99;99.78;103882.34;2112091;28;41755;-74
2022/01/13 01:46:07;;;;;;;176.00;30.35;;;;;;;3.99;99.96;103882.34;2105317;28;44343;-74
2022/01/13 01:47:14;;;;;;;209.15;31.85;;;;;;;4.00;99.70;103877.94;2105732;28;45947;-74
2022/01/13 01:48:20;;;;;;;208.43;29.83;;;;;;;3.99;99.79;103876.16;2105417;28;41212;-74
2022/01/13 01:49:25;;;;;;;219.95;31.88;;;;;;;4.00;99.78;103875.31;2105440;28;46300;-74
2022/01/13 01:50:34;;;;;;;198.95;28.85;;;;;;;3.98;99.87;103875.25;2105197;28;42435;-74
2022/01/13 01:51:36;;;;;;;200.75;30.13;;;;;;;3.98;100.00;103874.31;2105534;28;44072;-74
2022/01/13 01:52:39;;;;;;;213.60;31.23;;;;;;;3.97;99.67;103875.16;2105222;28;44796;-74
2022/01/13 01:53:41;;;;;;;193.95;28.60;;;;;;;3.98;99.87;103877.91;2113468;28;45230;-74
2022/01/13 01:54:44;;;;;;;202.95;30.15;;;;;;;3.98;99.92;103874.31;2112658;28;45287;-74
2022/01/13 01:55:46;;;;;;;195.57;31.45;;;;;;;3.97;99.72;103870.75;2106079;28;29547;-74
2022/01/13 01:56:49;;;;;;;201.27;29.02;;;;;;;3.97;99.84;103869.88;2112863;28;43082;-74
2022/01/13 01:57:51;;;;;;;182.07;27.60;;;;;;;3.98;99.61;103869.94;2113190;28;45839;-74
2022/01/13 01:58:55;;;;;;;168.15;27.45;;;;;;;3.99;99.83;103865.56;2105078;28;39257;-74
2022/01/13 01:59:57;;;;;;;205.73;29.67;;;;;;;4.00;99.80;103867.34;2112791;28;46232;-74
2022/01/13 02:01:00;;;;;;;196.88;30.92;;;;;;;3.98;100.00;103866.38;2106066;28;20036;-74
2022/01/13 02:02:06;;;;;;;232.65;31.65;;;;;;;3.98;99.92;103864.66;2105148;28;45858;-74
2022/01/13 02:03:13;;;;;;;210.30;30.83;;;;;;;3.98;99.90;103855.75;2105093;28;46483;-74
2022/01/13 02:04:16;;;;;;;183.02;28.38;;;;;;;3.98;99.44;103859.34;2105269;28;44176;-74
2022/01/13 02:05:18;;;;;;;234.48;32.50;;;;;;;3.97;99.63;103851.31;2103691;28;43474;-74
2022/01/13 02:06:20;;;;;;;176.18;27.63;;;;;;;3.98;99.50;103854.03;2096745;28;43620;-74
2022/01/13 02:07:21;;;;;;;184.65;28.70;;;;;;;3.98;99.98;103854.03;2096723;28;35837;-74
2022/01/13 02:08:23;;;;;;;205.98;29.80;;;;;;;3.97;99.72;103846.00;2096522;28;46187;-74
2022/01/13 02:09:25;;;;;;;219.55;31.63;;;;;;;3.97;99.79;103856.63;2097353;28;42714;-74
2022/01/13 02:10:27;;;;;;;200.50;29.40;;;;;;;3.96;99.83;103852.13;2096526;28;44893;-74
2022/01/13 02:11:30;;;;;;;224.48;30.98;;;;;;;3.97;99.99;103853.97;2097280;28;44515;-74
2022/01/13 02:12:44;;;;;;;249.68;31.00;;;;;;;3.98;99.62;103855.75;2098395;28;35598;-74
2022/01/13 02:13:52;;;;;;;219.45;28.48;;;;;;;3.98;99.72;103846.09;2104873;28;46322;-74
2022/01/13 02:15:17;;;;;;;217.30;30.92;;;;;;;3.98;99.84;103845.16;2105246;28;42345;-74
2022/01/13 02:17:41;;;;;;;190.98;29.00;;;;;;;4.00;99.75;103840.84;2105672;28;44942;-74
2022/01/13 02:18:43;;;;;;;206.15;28.30;;;;;;;3.97;99.80;103831.00;2105024;28;45463;-74
2022/01/13 02:19:45;;;;;;;197.60;28.10;;;;;;;3.99;100.00;103831.97;2113374;28;44237;-74
2022/01/13 02:20:54;;;;;;;207.27;29.83;;;;;;;3.98;99.75;103832.84;2112509;28;42410;-73
2022/01/13 02:21:56;;;;;;;208.52;29.30;;;;;;;3.99;99.97;103833.75;2113198;28;45684;-74
2022/01/13 02:22:58;;;;;;;185.02;27.90;;;;;;;3.99;99.88;103834.63;2112234;28;45486;-74
2022/01/13 02:24:00;;;;;;;184.75;28.60;;;;;;;3.99;99.73;103833.75;2105493;28;45741;-74
2022/01/13 02:25:03;;;;;;;195.13;28.20;;;;;;;4.00;99.89;103830.22;2105179;28;44000;-74
2022/01/13 02:26:09;;;;;;;182.25;28.13;;;;;;;4.00;100.00;103835.53;2105860;28;42247;-74
2022/01/13 02:27:11;;;;;;;188.23;27.58;;;;;;;3.99;99.97;103828.44;2105266;28;44362;-74
2022/01/13 02:28:13;;;;;;;189.57;27.85;;;;;;;3.99;100.00;103823.13;2104964;28;45207;-74
2022/01/13 02:29:17;;;;;;;212.00;29.48;;;;;;;3.98;100.00;103818.66;2105542;28;42381;-74
2022/01/13 02:30:19;;;;;;;225.98;29.02;;;;;;;3.99;99.78;103831.09;2105348;28;45309;-74
2022/01/13 02:31:21;;;;;;;171.27;26.85;;;;;;;3.98;99.89;103826.59;2105374;28;46135;-74
2022/01/13 02:32:23;;;;;;;206.80;29.38;;;;;;;3.97;99.77;103828.34;2105756;28;43097;-74
2022/01/13 02:33:24;;;;;;;203.85;29.58;;;;;;;3.98;99.82;103829.25;2105548;28;44784;-74
2022/01/13 02:34:29;;;;;;;203.23;30.33;;;;;;;3.97;99.94;103832.75;2105894;28;20102;-74
2022/01/13 02:35:35;;;;;;;210.93;30.95;;;;;;;3.97;99.92;103835.41;2105367;28;44465;-74
2022/01/13 02:36:37;;;;;;;211.35;30.58;;;;;;;3.96;99.90;103833.56;2105201;28;44523;-74
2022/01/13 02:37:39;;;;;;;192.73;30.02;;;;;;;3.96;99.93;103822.97;2112717;27;43133;-74
2022/01/13 02:38:41;;;;;;;217.93;31.23;;;;;;;3.96;99.99;103828.28;2104521;28;37818;-74
2022/01/13 02:39:42;;;;;;;213.10;31.83;;;;;;;3.96;99.80;103825.63;2096329;28;43992;-74
2022/01/13 02:40:55;;;;;;;227.27;31.02;;;;;;;3.93;99.79;103820.16;2105027;28;43306;-74
2022/01/13 02:41:59;;;;;;;225.45;31.52;;;;;;;3.94;100.00;103820.22;2112986;28;45989;-74
2022/01/13 02:43:01;;;;;;;212.70;30.10;;;;;;;3.94;100.00;103814.03;2110964;28;42932;-73
2022/01/13 02:44:13;;;;;;;222.95;30.33;;;;;;;3.94;100.00;103814.94;2104225;28;44898;-74
2022/01/13 02:45:16;;;;;;;200.70;30.10;;;;;;;3.94;100.00;103819.34;2105217;28;41507;-74
2022/01/13 02:48:44;;;;;;;211.68;30.08;;;;;;;3.92;99.81;103813.06;2097330;28;45721;-74
2022/01/13 02:49:46;;;;;;;235.80;33.55;;;;;;;3.91;99.89;103816.50;2096981;28;44404;-73
2022/01/13 02:50:48;;;;;;;255.18;34.15;;;;;;;3.92;99.97;103816.59;2104313;28;44959;-73
2022/01/13 02:51:53;;;;;;;225.77;32.47;;;;;;;3.90;99.91;103812.06;2104566;28;44305;-73
2022/01/13 02:52:57;;;;;;;238.90;32.85;;;;;;;3.91;99.95;103808.56;2097769;28;20041;-73
2022/01/13 02:54:00;;;;;;;250.23;34.00;;;;;;;3.91;100.00;103824.47;2104704;28;43988;-73
2022/01/13 02:55:03;;;;;;;229.68;33.55;;;;;;;3.91;100.00;103813.88;2105006;28;45298;-73
2022/01/13 02:56:05;;;;;;;211.95;32.35;;;;;;;3.90;100.00;103818.28;2105466;28;43436;-73
2022/01/13 02:57:07;;;;;;;223.20;30.90;;;;;;;3.91;99.60;103816.50;2105010;28;45390;-73
2022/01/13 02:58:14;;;;;;;215.27;31.75;;;;;;;3.91;99.78;103819.16;2105880;28;21044;-73
2022/01/13 02:59:15;;;;;;;224.43;33.50;;;;;;;3.91;100.00;103817.44;2105240;28;42231;-73
2022/01/13 03:00:17;;;;;;;253.70;33.85;;;;;;;3.91;99.85;103817.44;2112838;28;32981;-73
2022/01/13 03:01:19;;;;;;;204.77;29.30;;;;;;;3.93;99.84;103817.50;2112842;28;44544;-73
2022/01/13 03:02:28;;;;;;;217.25;29.67;;;;;;;3.92;100.00;103821.91;2105827;28;20151;-73
2022/01/13 03:03:33;;;;;;;192.32;29.65;;;;;;;3.91;99.98;103820.09;2113499;28;35299;-72
2022/01/13 03:04:34;;;;;;;190.55;30.02;;;;;;;3.91;99.84;103825.41;2102590;28;42325;-73
2022/01/13 03:05:38;;;;;;;211.30;31.52;;;;;;;3.91;100.00;103819.16;2096214;28;44290;-73
2022/01/13 03:06:41;;;;;;;227.70;31.15;;;;;;;3.90;100.00;103817.38;2096762;28;44408;-73
2022/01/13 03:07:43;;;;;;;191.82;30.23;;;;;;;3.91;100.00;103814.81;2096368;28;44141;-73
2022/01/13 03:08:47;;;;;;;200.70;29.90;;;;;;;3.89;100.00;103813.78;2096134;28;45137;-73
2022/01/13 03:09:48;;;;;;;211.90;29.33;;;;;;;3.91;100.00;103819.16;2096495;28;41719;-73
2022/01/13 03:10:51;;;;;;;224.20;30.27;;;;;;;3.88;100.00;103819.94;2103999;28;46010;-73
2022/01/13 03:11:52;;;;;;;210.98;29.00;;;;;;;3.89;100.00;103816.44;2096486;28;44948;-73
2022/01/13 03:12:56;;;;;;;207.32;29.35;;;;;;;3.90;100.00;103814.72;2101731;28;43735;-73
2022/01/13 03:13:58;;;;;;;271.98;31.60;;;;;;;3.91;99.78;103803.25;2104810;28;45444;-73
2022/01/13 03:14:59;;;;;;;237.32;31.35;;;;;;;3.89;99.90;103805.84;2112883;28;44375;-73
2022/01/13 03:16:10;;;;;;;254.32;31.92;;;;;;;3.88;100.00;103803.13;2112298;28;46678;-72
2022/01/13 03:17:14;;;;;;;212.98;28.95;;;;;;;3.89;100.00;103794.34;2104819;28;46402;-73
2022/01/13 03:18:16;;;;;;;221.88;31.33;;;;;;;3.89;100.00;103799.63;2105684;28;27781;-73
2022/01/13 03:19:17;;;;;;;201.32;29.38;;;;;;;3.89;100.00;103797.88;2104769;28;43924;-73
2022/01/13 03:20:19;;;;;;;208.88;29.50;;;;;;;3.86;99.93;103803.06;2104395;28;45408;-73
2022/01/13 03:21:21;;;;;;;203.60;28.63;;;;;;;3.88;99.80;103797.84;2104456;28;44310;-73
2022/01/13 03:22:23;;;;;;;204.30;28.98;;;;;;;3.87;99.93;103799.53;2104496;28;42326;-73
2022/01/13 03:23:24;;;;;;;210.65;29.35;;;;;;;3.86;99.92;103805.69;2105281;28;43798;-73
2022/01/13 03:24:27;;;;;;;211.10;28.98;;;;;;;3.87;100.00;103799.53;2097373;28;44418;-73
2022/01/13 03:25:28;;;;;;;189.50;28.83;;;;;;;3.88;100.00;103804.03;2096106;28;44763;-73
2022/01/13 03:26:30;;;;;;;202.65;29.90;;;;;;;3.86;100.00;103808.34;2096213;28;45522;-73
2022/01/13 03:27:35;;;;;;;205.95;29.33;;;;;;;3.86;99.68;103813.66;2096349;28;46619;-73
2022/01/13 03:28:51;;;;;;;210.15;29.45;;;;;;;3.86;100.00;103818.94;2096326;28;42282;-73
2022/01/13 03:29:52;;;;;;;186.27;28.38;;;;;;;3.87;99.97;103811.91;2096491;28;44649;-73
2022/01/13 03:30:55;;;;;;;186.63;29.58;;;;;;;3.86;100.00;103804.75;2096521;28;44495;-73
2022/01/13 03:31:57;;;;;;;183.85;27.25;;;;;;;3.88;100.00;103808.44;2096478;28;44046;-73
2022/01/13 03:33:00;;;;;;;182.20;28.00;;;;;;;3.87;99.94;103806.59;2096282;28;43829;-73
2022/01/13 03:34:03;;;;;;;201.32;29.40;;;;;;;3.86;99.94;103821.59;2096475;28;42199;-73
2022/01/13 03:35:06;;;;;;;194.10;28.38;;;;;;;3.85;100.00;103809.16;2099944;28;44386;-73
2022/01/13 03:36:09;;;;;;;181.32;28.60;;;;;;;3.86;100.00;103812.72;2104561;28;45148;-73
2022/01/13 03:37:11;;;;;;;201.38;29.83;;;;;;;3.85;100.00;103802.97;2105480;28;20032;-73
2022/01/13 03:38:13;;;;;;;182.32;28.25;;;;;;;3.86;99.80;103815.38;2105300;28;20115;-73
2022/01/13 03:39:15;;;;;;;188.50;29.00;;;;;;;3.83;100.00;103809.09;2104533;28;45702;-73
2022/01/13 03:40:16;;;;;;;188.90;29.50;;;;;;;3.85;99.75;103805.63;2104246;28;43771;-73
2022/01/13 03:41:20;;;;;;;195.75;28.98;;;;;;;3.85;100.00;103810.91;2104440;28;46350;-73
2022/01/13 03:42:25;;;;;;;184.60;29.48;;;;;;;3.85;99.78;103813.56;2105955;28;20048;-73
2022/01/13 03:43:27;;;;;;;203.63;28.70;;;;;;;3.83;100.00;103811.72;2104899;28;45558;-73
2022/01/13 03:44:29;;;;;;;189.00;30.65;;;;;;;3.81;99.89;103810.75;2104234;28;46107;-73
2022/01/13 03:45:32;;;;;;;186.65;29.80;;;;;;;3.83;100.00;103817.03;2105015;28;44280;-73
2022/01/13 03:46:37;;;;;;;175.88;27.85;;;;;;;3.83;100.00;103813.47;2104239;28;43976;-73
2022/01/13 03:47:38;;;;;;;172.30;28.67;;;;;;;3.83;100.00;103819.69;2104547;28;42632;-73
2022/01/13 03:48:41;;;;;;;187.20;29.48;;;;;;;3.83;99.73;103821.44;2104821;28;44225;-72
2022/01/13 03:49:43;;;;;;;203.27;28.67;;;;;;;3.83;99.86;103816.13;2103329;28;45816;-73
2022/01/13 03:50:46;;;;;;;209.27;31.50;;;;;;;3.82;100.00;103809.94;2104906;28;42001;-73
2022/01/13 03:51:59;;;;;;;212.82;29.90;;;;;;;3.85;100.00;103810.91;2105151;28;46366;-73
2022/01/13 03:53:01;;;;;;;179.95;28.33;;;;;;;3.84;99.71;103810.03;2104882;28;42087;-73
2022/01/13 03:55:03;;;;;;;184.63;28.27;;;;;;;3.85;99.75;103808.28;2104507;28;44242;-73
2022/01/13 03:56:42;;;;;;;189.88;27.75;;;;;;;3.85;100.00;103810.91;2104560;28;45836;-73
2022/01/13 03:58:25;;;;;;;190.13;26.60;;;;;;;3.86;99.98;103813.66;2104890;28;43737;-73
2022/01/13 04:00:16;;;;;;;185.68;26.33;;;;;;;3.85;100.00;103801.22;2109745;28;45980;-72
2022/01/13 04:01:59;;;;;;;162.48;25.17;;;;;;;3.83;99.85;103795.84;2104519;28;44398;-73
2022/01/13 04:03:01;;;;;;;147.32;23.60;;;;;;;3.84;100.00;103802.06;2104899;28;43979;-73
2022/01/13 04:04:05;;;;;;;177.75;28.17;;;;;;;3.83;99.82;103798.47;2101715;28;37005;-74
2022/01/13 04:05:06;;;;;;;170.77;27.20;;;;;;;3.86;100.00;103794.16;2099527;28;43476;-73
2022/01/13 04:06:11;;;;;;;192.38;28.00;;;;;;;3.84;100.00;103796.75;2103725;28;45349;-73
2022/01/13 04:07:18;;;;;;;188.13;27.88;;;;;;;3.85;99.91;103795.00;2104103;28;34152;-73
2022/01/13 04:08:19;;;;;;;220.27;27.17;;;;;;;3.84;100.00;103802.06;2095576;28;42885;-73
2022/01/13 04:09:32;;;;;;;200.52;28.52;;;;;;;3.83;100.00;103790.53;2087982;28;45189;-73
2022/01/13 04:10:46;;;;;;;181.88;26.27;;;;;;;3.84;100.00;103799.41;2097151;28;42324;-73
2022/01/13 04:11:48;;;;;;;173.57;25.20;;;;;;;3.84;99.76;103796.75;2103891;28;44482;-73
2022/01/13 04:12:50;;;;;;;179.85;26.40;;;;;;;3.85;99.72;103802.97;2104140;28;33296;-73
2022/01/13 04:14:01;;;;;;;184.75;27.25;;;;;;;3.83;99.87;103810.84;2096447;28;45009;-73
2022/01/13 04:15:10;;;;;;;170.73;26.60;;;;;;;3.85;100.00;103802.97;2095838;28;45331;-73
2022/01/13 04:16:15;;;;;;;183.65;27.05;;;;;;;3.84;99.97;103804.72;2095611;28;43778;-73
2022/01/13 04:17:20;;;;;;;159.32;26.83;;;;;;;3.85;100.00;103795.91;2088848;28;45436;-73
2022/01/13 04:18:23;;;;;;;184.90;27.08;;;;;;;3.82;100.00;103799.34;2089339;28;20042;-73
2022/01/13 04:19:24;;;;;;;176.45;27.42;;;;;;;3.82;100.00;103791.38;2088038;28;45244;-73
2022/01/13 04:20:26;;;;;;;176.88;28.23;;;;;;;3.83;100.00;103801.13;2095232;28;46317;-73
2022/01/13 04:21:28;;;;;;;186.95;27.08;;;;;;;3.83;100.00;103801.13;2096340;28;39953;-73
2022/01/13 04:22:30;;;;;;;182.32;26.75;;;;;;;3.83;99.81;103798.47;2096351;28;45693;-73
2022/01/13 04:23:32;;;;;;;180.85;27.58;;;;;;;3.84;100.00;103791.47;2096242;28;46019;-73
2022/01/13 04:24:37;;;;;;;183.13;28.00;;;;;;;3.83;100.00;103790.53;2087276;28;31163;-73
2022/01/13 04:25:42;;;;;;;203.60;28.17;;;;;;;3.85;100.00;103792.38;2087809;28;45453;-73
2022/01/13 04:26:46;;;;;;;196.23;25.80;;;;;;;3.83;100.00;103793.19;2095231;28;43402;-73
2022/01/13 04:27:49;;;;;;;184.98;27.05;;;;;;;3.83;100.00;103779.94;2095457;28;44143;-73
2022/01/13 04:29:00;;;;;;;184.45;26.02;;;;;;;3.85;99.90;103782.66;2096244;28;45065;-73
2022/01/13 04:31:18;;;;;;;159.82;25.40;;;;;;;3.85;99.90;103782.66;2095379;28;44235;-73
2022/01/13 04:32:22;;;;;;;183.70;26.92;;;;;;;3.83;100.00;103779.94;2097389;28;44621;-73
2022/01/13 04:33:23;;;;;;;160.25;26.38;;;;;;;3.84;100.00;103775.56;2095998;28;44992;-73
2022/01/13 04:34:28;;;;;;;199.48;28.02;;;;;;;3.83;100.00;103782.59;2096250;28;46446;-73
2022/01/13 04:35:30;;;;;;;176.27;27.42;;;;;;;3.85;100.00;103777.38;2103460;28;43811;-73
2022/01/13 04:36:32;;;;;;;184.93;27.60;;;;;;;3.85;100.00;103781.75;2104586;27;44012;-73
2022/01/13 04:37:34;;;;;;;174.38;27.48;;;;;;;3.85;100.00;103787.97;2104419;28;46025;-73
2022/01/13 04:38:38;;;;;;;167.15;25.67;;;;;;;3.87;99.94;103788.03;2105228;28;20035;-74
2022/01/13 04:39:40;;;;;;;211.18;27.38;;;;;;;3.85;99.73;103784.41;2104922;28;39379;-73
2022/01/13 04:40:45;;;;;;;183.10;26.45;;;;;;;3.85;100.00;103787.97;2104457;28;43677;-73
2022/01/13 04:41:48;;;;;;;148.77;26.00;;;;;;;3.86;99.94;103783.56;2104431;28;44026;-73
2022/01/13 04:42:55;;;;;;;187.40;26.42;;;;;;;3.87;100.00;103780.09;2105582;28;20040;-73
2022/01/13 04:43:57;;;;;;;172.13;26.65;;;;;;;3.88;100.00;103777.53;2104548;28;44104;-73
2022/01/13 04:45:03;;;;;;;154.10;25.60;;;;;;;3.88;100.00;103784.56;2105437;28;20043;-73
2022/01/13 04:46:05;;;;;;;165.20;26.40;;;;;;;3.88;100.00;103781.94;2104995;28;42435;-73
2022/01/13 04:47:09;;;;;;;154.00;25.83;;;;;;;3.89;100.00;103783.72;2104494;28;45682;-73
2022/01/13 04:48:11;;;;;;;162.02;26.13;;;;;;;3.87;100.00;103785.41;2112291;28;45135;-73
2022/01/13 04:49:13;;;;;;;157.82;25.67;;;;;;;3.88;99.84;103780.19;2111416;28;43621;-73
2022/01/13 04:50:15;;;;;;;153.38;25.65;;;;;;;3.89;99.90;103773.13;2104248;28;44208;-73
2022/01/13 04:51:17;;;;;;;146.18;25.23;;;;;;;3.89;100.00;103767.81;2104394;28;45684;-73
2022/01/13 04:52:19;;;;;;;155.73;26.13;;;;;;;3.90;100.00;103769.66;2111858;28;45169;-73
2022/01/13 04:53:21;;;;;;;159.38;26.45;;;;;;;3.89;99.98;103770.47;2112148;28;46274;-73
2022/01/13 04:54:23;;;;;;;161.90;26.65;;;;;;;3.90;100.00;103772.31;2104310;28;42600;-73
2022/01/13 04:55:26;;;;;;;149.73;24.60;;;;;;;3.90;100.00;103765.25;2104728;28;34222;-73
2022/01/13 04:56:31;;;;;;;149.05;25.35;;;;;;;3.90;100.00;103762.59;2104067;28;44606;-73
2022/01/13 04:57:33;;;;;;;162.63;26.10;;;;;;;3.90;100.00;103767.00;2112203;28;42909;-73
2022/01/13 04:58:35;;;;;;;174.27;27.15;;;;;;;3.90;100.00;103759.06;2112152;28;34411;-73
2022/01/13 04:59:36;;;;;;;154.45;26.90;;;;;;;3.91;100.00;103760.84;2104539;28;43597;-73
2022/01/13 05:00:38;;;;;;;171.68;26.65;;;;;;;3.90;100.00;103764.34;2111582;27;45658;-73
2022/01/13 05:01:40;;;;;;;150.02;24.58;;;;;;;3.92;99.78;103754.75;2113484;28;45853;-73
2022/01/13 05:02:42;;;;;;;173.95;27.10;;;;;;;3.90;99.92;103748.44;2105794;28;43381;-73
2022/01/13 05:03:46;;;;;;;156.50;26.80;;;;;;;3.90;100.00;103761.72;2113571;28;45448;-73
2022/01/13 05:04:48;;;;;;;147.77;26.23;;;;;;;3.92;100.00;103766.25;2106600;28;42741;-73
2022/01/13 05:05:49;;;;;;;158.68;25.85;;;;;;;3.91;100.00;103760.84;2105488;28;43876;-73
2022/01/13 05:06:51;;;;;;;150.02;24.95;;;;;;;3.92;100.00;103758.28;2106020;28;44524;-73